sensor_id;sensor_type;location;lat;lon;timestamp;pressure;altitude;pressure_sealevel;temperature;humidity
17260;BME280;8746;49.230;9.220;2023-08-21T00:01:01;100301.25;;;22.52;100.00
17260;BME280;8746;49.230;9.220;2023-08-21T00:03:27;100302.22;;;22.51;100.00
17260;BME280;8746;49.230;9.220;2023-08-21T00:05:52;100306.13;;;22.47;100.00
17260;BME280;8746;49.230;9.220;2023-08-21T00:08:18;100303.84;;;22.43;100.00
17260;BME280;8746;49.230;9.220;2023-08-21T00:10:43;100303.97;;;22.41;100.00
17260;BME280;8746;49.230;9.220;2023-08-21T00:13:09;100300.56;;;22.39;100.00
17260;BME280;8746;49.230;9.220;2023-08-21T00:15:34;100300.44;;;22.40;100.00
17260;BME280;8746;49.230;9.220;2023-08-21T00:18:00;100301.53;;;22.26;100.00
17260;BME280;8746;49.230;9.220;2023-08-21T00:20:26;100305.94;;;22.28;100.00
17260;BME280;8746;49.230;9.220;2023-08-21T00:22:52;100304.56;;;22.12;100.00
17260;BME280;8746;49.230;9.220;2023-08-21T00:25:17;100305.97;;;21.84;100.00
17260;BME280;8746;49.230;9.220;2023-08-21T00:27:42;100303.41;;;21.82;100.00
17260;BME280;8746;49.230;9.220;2023-08-21T00:30:08;100302.94;;;21.77;100.00
17260;BME280;8746;49.230;9.220;2023-08-21T00:32:34;100300.72;;;21.82;100.00
17260;BME280;8746;49.230;9.220;2023-08-21T00:34:59;100294.84;;;21.88;100.00
17260;BME280;8746;49.230;9.220;2023-08-21T00:37:24;100292.16;;;21.88;100.00
17260;BME280;8746;49.230;9.220;2023-08-21T00:39:50;100301.78;;;21.91;100.00
17260;BME280;8746;49.230;9.220;2023-08-21T00:42:15;100304.09;;;21.96;100.00
17260;BME280;8746;49.230;9.220;2023-08-21T00:44:41;100298.50;;;21.99;100.00
17260;BME280;8746;49.230;9.220;2023-08-21T00:47:06;100298.22;;;22.02;100.00
17260;BME280;8746;49.230;9.220;2023-08-21T00:49:32;100292.53;;;21.95;100.00
17260;BME280;8746;49.230;9.220;2023-08-21T00:51:58;100297.75;;;21.97;100.00
17260;BME280;8746;49.230;9.220;2023-08-21T00:54:23;100292.38;;;21.97;100.00
17260;BME280;8746;49.230;9.220;2023-08-21T00:56:49;100290.03;;;21.71;100.00
17260;BME280;8746;49.230;9.220;2023-08-21T00:59:18;100288.56;;;21.67;100.00
17260;BME280;8746;49.230;9.220;2023-08-21T01:01:44;100291.13;;;21.68;100.00
17260;BME280;8746;49.230;9.220;2023-08-21T01:04:10;100286.59;;;21.69;100.00
17260;BME280;8746;49.230;9.220;2023-08-21T01:06:35;100286.34;;;21.72;100.00
17260;BME280;8746;49.230;9.220;2023-08-21T01:09:06;100288.31;;;21.70;100.00
17260;BME280;8746;49.230;9.220;2023-08-21T01:11:44;100288.06;;;21.73;100.00
17260;BME280;8746;49.230;9.220;2023-08-21T01:14:23;100289.75;;;21.74;100.00
17260;BME280;8746;49.230;9.220;2023-08-21T01:16:56;100289.75;;;21.74;100.00
17260;BME280;8746;49.230;9.220;2023-08-21T01:19:50;100292.44;;;21.74;100.00
17260;BME280;8746;49.230;9.220;2023-08-21T01:22:17;100292.34;;;21.64;100.00
17260;BME280;8746;49.230;9.220;2023-08-21T01:24:42;100290.06;;;21.59;100.00
17260;BME280;8746;49.230;9.220;2023-08-21T01:27:09;100298.19;;;21.58;100.00
17260;BME280;8746;49.230;9.220;2023-08-21T01:29:35;100301.03;;;21.56;100.00
17260;BME280;8746;49.230;9.220;2023-08-21T01:34:28;100301.50;;;21.61;100.00
17260;BME280;8746;49.230;9.220;2023-08-21T01:36:55;100304.06;;;21.63;100.00
17260;BME280;8746;49.230;9.220;2023-08-21T01:39:21;100303.47;;;21.59;100.00
17260;BME280;8746;49.230;9.220;2023-08-21T01:41:46;100298.56;;;21.53;100.00
17260;BME280;8746;49.230;9.220;2023-08-21T01:44:12;100300.50;;;21.51;100.00
17260;BME280;8746;49.230;9.220;2023-08-21T01:46:37;100292.22;;;21.43;100.00
17260;BME280;8746;49.230;9.220;2023-08-21T01:49:02;100289.41;;;21.33;100.00
17260;BME280;8746;49.230;9.220;2023-08-21T01:51:27;100288.19;;;21.37;100.00
17260;BME280;8746;49.230;9.220;2023-08-21T01:53:53;100292.72;;;21.37;100.00
17260;BME280;8746;49.230;9.220;2023-08-21T01:56:18;100294.66;;;21.35;100.00
17260;BME280;8746;49.230;9.220;2023-08-21T01:58:43;100291.75;;;21.38;100.00
17260;BME280;8746;49.230;9.220;2023-08-21T02:01:09;100294.28;;;21.39;100.00
17260;BME280;8746;49.230;9.220;2023-08-21T02:03:34;100290.50;;;21.42;100.00
17260;BME280;8746;49.230;9.220;2023-08-21T02:05:59;100285.03;;;21.43;100.00
17260;BME280;8746;49.230;9.220;2023-08-21T02:08:30;100293.44;;;21.50;100.00
17260;BME280;8746;49.230;9.220;2023-08-21T02:10:57;100293.19;;;21.53;100.00
17260;BME280;8746;49.230;9.220;2023-08-21T02:13:22;100293.19;;;21.53;100.00
17260;BME280;8746;49.230;9.220;2023-08-21T02:15:48;100297.84;;;21.51;100.00
17260;BME280;8746;49.230;9.220;2023-08-21T02:18:13;100295.38;;;21.48;100.00
17260;BME280;8746;49.230;9.220;2023-08-21T02:20:39;100294.06;;;21.42;100.00
17260;BME280;8746;49.230;9.220;2023-08-21T02:23:04;100302.00;;;21.33;100.00
17260;BME280;8746;49.230;9.220;2023-08-21T02:25:31;100300.50;;;21.28;100.00
17260;BME280;8746;49.230;9.220;2023-08-21T02:27:56;100291.50;;;21.29;100.00
17260;BME280;8746;49.230;9.220;2023-08-21T02:32:52;100301.25;;;21.30;100.00
17260;BME280;8746;49.230;9.220;2023-08-21T02:35:18;100308.22;;;21.33;100.00
17260;BME280;8746;49.230;9.220;2023-08-21T02:37:43;100304.16;;;21.27;100.00
17260;BME280;8746;49.230;9.220;2023-08-21T02:40:09;100299.81;;;21.26;100.00
17260;BME280;8746;49.230;9.220;2023-08-21T02:42:34;100299.28;;;21.21;100.00
17260;BME280;8746;49.230;9.220;2023-08-21T02:45:00;100303.81;;;21.21;100.00
17260;BME280;8746;49.230;9.220;2023-08-21T02:47:29;100301.28;;;21.19;100.00
17260;BME280;8746;49.230;9.220;2023-08-21T02:49:54;100302.38;;;21.17;100.00
17260;BME280;8746;49.230;9.220;2023-08-21T02:52:19;100296.63;;;21.10;100.00
17260;BME280;8746;49.230;9.220;2023-08-21T02:54:45;100306.72;;;21.06;100.00
17260;BME280;8746;49.230;9.220;2023-08-21T02:57:10;100292.47;;;21.06;100.00
17260;BME280;8746;49.230;9.220;2023-08-21T02:59:35;100297.09;;;21.04;100.00
17260;BME280;8746;49.230;9.220;2023-08-21T03:02:01;100295.38;;;21.03;100.00
17260;BME280;8746;49.230;9.220;2023-08-21T03:04:26;100307.34;;;20.98;100.00
17260;BME280;8746;49.230;9.220;2023-08-21T03:06:51;100301.00;;;21.00;100.00
17260;BME280;8746;49.230;9.220;2023-08-21T03:09:17;100302.13;;;20.97;100.00
17260;BME280;8746;49.230;9.220;2023-08-21T03:11:42;100296.97;;;20.94;100.00
17260;BME280;8746;49.230;9.220;2023-08-21T03:14:07;100304.53;;;20.89;100.00
17260;BME280;8746;49.230;9.220;2023-08-21T03:16:33;100306.59;;;20.85;100.00
17260;BME280;8746;49.230;9.220;2023-08-21T03:18:59;100306.81;;;20.82;100.00
17260;BME280;8746;49.230;9.220;2023-08-21T03:21:25;100313.75;;;20.73;100.00
17260;BME280;8746;49.230;9.220;2023-08-21T03:23:53;100309.72;;;20.68;100.00
17260;BME280;8746;49.230;9.220;2023-08-21T03:26:19;100308.56;;;20.59;100.00
17260;BME280;8746;49.230;9.220;2023-08-21T03:28:44;100310.06;;;20.63;100.00
17260;BME280;8746;49.230;9.220;2023-08-21T03:31:10;100312.00;;;20.61;100.00
17260;BME280;8746;49.230;9.220;2023-08-21T03:33:35;100313.09;;;20.58;100.00
17260;BME280;8746;49.230;9.220;2023-08-21T03:36:00;100305.16;;;20.57;100.00
17260;BME280;8746;49.230;9.220;2023-08-21T03:38:25;100314.19;;;20.56;100.00
17260;BME280;8746;49.230;9.220;2023-08-21T03:40:51;100315.00;;;20.56;100.00
17260;BME280;8746;49.230;9.220;2023-08-21T03:43:16;100317.81;;;20.55;100.00
17260;BME280;8746;49.230;9.220;2023-08-21T03:45:41;100320.63;;;20.53;100.00
17260;BME280;8746;49.230;9.220;2023-08-21T03:48:07;100318.91;;;20.52;100.00
17260;BME280;8746;49.230;9.220;2023-08-21T03:50:32;100317.19;;;20.51;100.00
17260;BME280;8746;49.230;9.220;2023-08-21T03:52:57;100314.50;;;20.40;100.00
17260;BME280;8746;49.230;9.220;2023-08-21T03:55:23;100316.25;;;20.28;100.00
17260;BME280;8746;49.230;9.220;2023-08-21T03:57:48;100319.53;;;20.20;100.00
17260;BME280;8746;49.230;9.220;2023-08-21T04:00:13;100318.03;;;20.16;100.00
17260;BME280;8746;49.230;9.220;2023-08-21T04:02:40;100322.06;;;20.22;100.00
17260;BME280;8746;49.230;9.220;2023-08-21T04:05:06;100324.88;;;20.20;100.00
17260;BME280;8746;49.230;9.220;2023-08-21T04:07:31;100320.88;;;20.26;100.00
17260;BME280;8746;49.230;9.220;2023-08-21T04:09:56;100327.44;;;20.22;100.00
17260;BME280;8746;49.230;9.220;2023-08-21T04:12:22;100320.63;;;20.17;100.00
17260;BME280;8746;49.230;9.220;2023-08-21T04:14:47;100323.38;;;20.16;100.00
17260;BME280;8746;49.230;9.220;2023-08-21T04:17:12;100330.88;;;20.24;100.00
17260;BME280;8746;49.230;9.220;2023-08-21T04:19:38;100328.19;;;20.24;100.00
17260;BME280;8746;49.230;9.220;2023-08-21T04:22:06;100329.38;;;20.20;100.00
17260;BME280;8746;49.230;9.220;2023-08-21T04:24:31;100333.88;;;20.19;100.00
17260;BME280;8746;49.230;9.220;2023-08-21T04:26:56;100325.97;;;20.17;100.00
17260;BME280;8746;49.230;9.220;2023-08-21T04:29:22;100337.53;;;20.18;100.00
17260;BME280;8746;49.230;9.220;2023-08-21T04:31:48;100329.59;;;20.16;100.00
17260;BME280;8746;49.230;9.220;2023-08-21T04:34:13;100336.06;;;20.14;100.00
17260;BME280;8746;49.230;9.220;2023-08-21T04:36:38;100335.59;;;20.20;100.00
17260;BME280;8746;49.230;9.220;2023-08-21T04:39:04;100330.63;;;20.27;100.00
17260;BME280;8746;49.230;9.220;2023-08-21T04:41:29;100333.19;;;20.28;100.00
17260;BME280;8746;49.230;9.220;2023-08-21T04:43:54;100331.38;;;20.29;100.00
17260;BME280;8746;49.230;9.220;2023-08-21T04:46:20;100336.38;;;20.33;100.00
17260;BME280;8746;49.230;9.220;2023-08-21T04:48:46;100334.16;;;20.27;100.00
17260;BME280;8746;49.230;9.220;2023-08-21T04:51:11;100335.47;;;20.22;100.00
17260;BME280;8746;49.230;9.220;2023-08-21T04:53:37;100334.38;;;20.24;100.00
17260;BME280;8746;49.230;9.220;2023-08-21T04:56:02;100338.31;;;20.31;100.00
17260;BME280;8746;49.230;9.220;2023-08-21T04:58:28;100340.53;;;20.38;100.00
17260;BME280;8746;49.230;9.220;2023-08-21T05:00:54;100344.47;;;20.45;100.00
17260;BME280;8746;49.230;9.220;2023-08-21T05:03:19;100339.84;;;20.47;100.00
17260;BME280;8746;49.230;9.220;2023-08-21T05:05:54;100344.84;;;20.52;100.00
17260;BME280;8746;49.230;9.220;2023-08-21T05:08:22;100353.75;;;20.52;100.00
17260;BME280;8746;49.230;9.220;2023-08-21T05:10:48;100350.81;;;20.55;100.00
17260;BME280;8746;49.230;9.220;2023-08-21T05:13:13;100359.63;;;20.57;100.00
17260;BME280;8746;49.230;9.220;2023-08-21T05:15:42;100360.03;;;20.64;100.00
17260;BME280;8746;49.230;9.220;2023-08-21T05:18:07;100355.03;;;20.71;100.00
17260;BME280;8746;49.230;9.220;2023-08-21T05:20:33;100356.44;;;20.76;100.00
17260;BME280;8746;49.230;9.220;2023-08-21T05:22:58;100357.75;;;20.82;100.00
17260;BME280;8746;49.230;9.220;2023-08-21T05:25:24;100362.44;;;20.91;100.00
17260;BME280;8746;49.230;9.220;2023-08-21T05:27:49;100361.97;;;20.97;100.00
17260;BME280;8746;49.230;9.220;2023-08-21T05:30:14;100369.50;;;20.92;100.00
17260;BME280;8746;49.230;9.220;2023-08-21T05:32:40;100366.41;;;20.74;100.00
17260;BME280;8746;49.230;9.220;2023-08-21T05:35:05;100366.34;;;20.87;100.00
17260;BME280;8746;49.230;9.220;2023-08-21T05:37:33;100361.34;;;21.05;100.00
17260;BME280;8746;49.230;9.220;2023-08-21T05:39:58;100366.38;;;21.10;100.00
17260;BME280;8746;49.230;9.220;2023-08-21T05:42:23;100365.25;;;21.12;100.00
17260;BME280;8746;49.230;9.220;2023-08-21T05:44:49;100358.81;;;21.15;100.00
17260;BME280;8746;49.230;9.220;2023-08-21T05:47:14;100366.75;;;21.17;100.00
17260;BME280;8746;49.230;9.220;2023-08-21T05:49:40;100363.94;;;21.18;100.00
17260;BME280;8746;49.230;9.220;2023-08-21T05:52:05;100370.06;;;21.20;100.00
17260;BME280;8746;49.230;9.220;2023-08-21T05:56:56;100368.94;;;21.45;100.00
17260;BME280;8746;49.230;9.220;2023-08-21T05:59:30;100369.84;;;21.57;100.00
17260;BME280;8746;49.230;9.220;2023-08-21T06:01:56;100372.50;;;21.69;100.00
17260;BME280;8746;49.230;9.220;2023-08-21T06:04:21;100374.84;;;21.73;100.00
17260;BME280;8746;49.230;9.220;2023-08-21T06:06:46;100379.69;;;21.91;100.00
17260;BME280;8746;49.230;9.220;2023-08-21T06:09:12;100378.81;;;22.02;100.00
17260;BME280;8746;49.230;9.220;2023-08-21T06:11:37;100379.00;;;22.21;100.00
17260;BME280;8746;49.230;9.220;2023-08-21T06:14:04;100381.84;;;22.20;100.00
17260;BME280;8746;49.230;9.220;2023-08-21T06:16:29;100384.16;;;22.24;100.00
17260;BME280;8746;49.230;9.220;2023-08-21T06:18:55;100379.22;;;22.41;100.00
17260;BME280;8746;49.230;9.220;2023-08-21T06:21:20;100385.81;;;22.37;100.00
17260;BME280;8746;49.230;9.220;2023-08-21T06:23:45;100389.97;;;22.41;100.00
17260;BME280;8746;49.230;9.220;2023-08-21T06:26:11;100391.84;;;22.62;100.00
17260;BME280;8746;49.230;9.220;2023-08-21T06:28:36;100390.94;;;22.51;100.00
17260;BME280;8746;49.230;9.220;2023-08-21T06:31:01;100392.44;;;22.65;100.00
17260;BME280;8746;49.230;9.220;2023-08-21T06:33:28;100398.78;;;22.76;100.00
17260;BME280;8746;49.230;9.220;2023-08-21T06:35:54;100395.94;;;22.77;100.00
17260;BME280;8746;49.230;9.220;2023-08-21T06:38:19;100396.88;;;22.87;100.00
17260;BME280;8746;49.230;9.220;2023-08-21T06:40:45;100398.19;;;22.93;99.45
17260;BME280;8746;49.230;9.220;2023-08-21T06:43:11;100397.81;;;22.98;99.34
17260;BME280;8746;49.230;9.220;2023-08-21T06:45:36;100396.03;;;23.08;98.15
17260;BME280;8746;49.230;9.220;2023-08-21T06:48:01;100399.16;;;23.13;97.39
17260;BME280;8746;49.230;9.220;2023-08-21T06:50:27;100395.78;;;23.11;98.13
17260;BME280;8746;49.230;9.220;2023-08-21T06:52:53;100401.09;;;23.23;97.59
17260;BME280;8746;49.230;9.220;2023-08-21T06:55:19;100392.69;;;23.37;97.77
17260;BME280;8746;49.230;9.220;2023-08-21T06:57:44;100389.84;;;23.39;98.58
17260;BME280;8746;49.230;9.220;2023-08-21T07:00:10;100394.97;;;23.42;98.00
17260;BME280;8746;49.230;9.220;2023-08-21T07:02:35;100395.06;;;23.61;97.80
17260;BME280;8746;49.230;9.220;2023-08-21T07:05:01;100386.88;;;23.73;96.35
17260;BME280;8746;49.230;9.220;2023-08-21T07:07:26;100389.31;;;23.85;95.87
17260;BME280;8746;49.230;9.220;2023-08-21T07:09:51;100394.91;;;23.94;94.95
17260;BME280;8746;49.230;9.220;2023-08-21T07:12:17;100388.13;;;23.99;96.20
17260;BME280;8746;49.230;9.220;2023-08-21T07:14:42;100394.91;;;23.94;95.23
17260;BME280;8746;49.230;9.220;2023-08-21T07:17:07;100390.28;;;24.06;95.14
17260;BME280;8746;49.230;9.220;2023-08-21T07:19:33;100400.66;;;24.20;97.59
17260;BME280;8746;49.230;9.220;2023-08-21T07:21:58;100400.50;;;24.22;94.80
17260;BME280;8746;49.230;9.220;2023-08-21T07:24:23;100399.38;;;24.34;93.54
17260;BME280;8746;49.230;9.220;2023-08-21T07:26:48;100393.28;;;24.52;93.11
17260;BME280;8746;49.230;9.220;2023-08-21T07:29:14;100396.44;;;24.57;91.33
17260;BME280;8746;49.230;9.220;2023-08-21T07:31:39;100399.13;;;24.57;92.58
17260;BME280;8746;49.230;9.220;2023-08-21T07:34:04;100397.31;;;24.67;91.22
17260;BME280;8746;49.230;9.220;2023-08-21T07:36:31;100400.72;;;24.69;91.69
17260;BME280;8746;49.230;9.220;2023-08-21T07:38:57;100397.44;;;24.75;91.11
17260;BME280;8746;49.230;9.220;2023-08-21T07:41:22;100390.06;;;24.77;90.40
17260;BME280;8746;49.230;9.220;2023-08-21T07:43:47;100398.28;;;24.86;90.27
17260;BME280;8746;49.230;9.220;2023-08-21T07:46:13;100403.81;;;24.94;89.17
17260;BME280;8746;49.230;9.220;2023-08-21T07:48:41;100401.25;;;25.02;91.43
17260;BME280;8746;49.230;9.220;2023-08-21T07:51:08;100405.50;;;25.15;89.90
17260;BME280;8746;49.230;9.220;2023-08-21T07:53:33;100404.06;;;25.20;89.19
17260;BME280;8746;49.230;9.220;2023-08-21T07:56:00;100404.06;;;25.20;89.67
17260;BME280;8746;49.230;9.220;2023-08-21T07:58:26;100409.44;;;25.40;89.44
17260;BME280;8746;49.230;9.220;2023-08-21T08:00:51;100403.88;;;25.41;89.04
17260;BME280;8746;49.230;9.220;2023-08-21T08:03:16;100401.47;;;25.38;88.50
17260;BME280;8746;49.230;9.220;2023-08-21T08:05:42;100400.28;;;25.51;89.30
17260;BME280;8746;49.230;9.220;2023-08-21T08:08:08;100403.69;;;25.53;88.75
17260;BME280;8746;49.230;9.220;2023-08-21T08:10:33;100398.31;;;25.53;88.32
17260;BME280;8746;49.230;9.220;2023-08-21T08:13:02;100402.81;;;25.62;87.48
17260;BME280;8746;49.230;9.220;2023-08-21T08:15:27;100405.31;;;25.73;87.16
17260;BME280;8746;49.230;9.220;2023-08-21T08:17:54;100393.63;;;25.83;88.04
17260;BME280;8746;49.230;9.220;2023-08-21T08:20:20;100400.66;;;25.93;88.49
17260;BME280;8746;49.230;9.220;2023-08-21T08:22:45;100392.09;;;25.98;85.38
17260;BME280;8746;49.230;9.220;2023-08-21T08:25:11;100398.50;;;25.97;86.84
17260;BME280;8746;49.230;9.220;2023-08-21T08:27:36;100392.47;;;26.13;85.91
17260;BME280;8746;49.230;9.220;2023-08-21T08:30:02;100399.19;;;26.09;85.55
17260;BME280;8746;49.230;9.220;2023-08-21T08:32:28;100389.38;;;26.08;85.62
17260;BME280;8746;49.230;9.220;2023-08-21T08:34:54;100390.19;;;26.18;87.27
17260;BME280;8746;49.230;9.220;2023-08-21T08:37:19;100393.56;;;26.38;87.00
17260;BME280;8746;49.230;9.220;2023-08-21T08:39:47;100400.25;;;26.62;85.25
17260;BME280;8746;49.230;9.220;2023-08-21T08:42:14;100392.44;;;26.77;84.57
17260;BME280;8746;49.230;9.220;2023-08-21T08:44:41;100388.66;;;26.88;84.95
17260;BME280;8746;49.230;9.220;2023-08-21T08:47:10;100390.75;;;27.02;84.46
17260;BME280;8746;49.230;9.220;2023-08-21T08:49:37;100396.34;;;27.01;81.48
17260;BME280;8746;49.230;9.220;2023-08-21T08:52:06;100382.25;;;26.97;82.46
17260;BME280;8746;49.230;9.220;2023-08-21T08:54:32;100387.13;;;27.12;84.18
17260;BME280;8746;49.230;9.220;2023-08-21T08:56:58;100387.72;;;27.24;82.09
17260;BME280;8746;49.230;9.220;2023-08-21T08:59:24;100394.00;;;27.32;81.68
17260;BME280;8746;49.230;9.220;2023-08-21T09:01:49;100390.75;;;27.55;80.27
17260;BME280;8746;49.230;9.220;2023-08-21T09:04:15;100386.91;;;27.66;80.54
17260;BME280;8746;49.230;9.220;2023-08-21T09:06:40;100386.78;;;27.76;78.79
17260;BME280;8746;49.230;9.220;2023-08-21T09:09:07;100377.47;;;27.70;77.42
17260;BME280;8746;49.230;9.220;2023-08-21T09:11:33;100384.81;;;27.86;78.12
17260;BME280;8746;49.230;9.220;2023-08-21T09:13:58;100379.44;;;28.03;80.24
17260;BME280;8746;49.230;9.220;2023-08-21T09:16:25;100383.16;;;28.02;77.14
17260;BME280;8746;49.230;9.220;2023-08-21T09:18:53;100379.59;;;28.01;75.81
17260;BME280;8746;49.230;9.220;2023-08-21T09:21:20;100376.81;;;28.19;77.98
17260;BME280;8746;49.230;9.220;2023-08-21T09:23:46;100379.38;;;28.29;76.71
17260;BME280;8746;49.230;9.220;2023-08-21T09:26:22;100373.94;;;28.45;74.30
17260;BME280;8746;49.230;9.220;2023-08-21T09:28:49;100365.31;;;28.58;77.32
17260;BME280;8746;49.230;9.220;2023-08-21T09:31:14;100377.50;;;28.54;71.89
17260;BME280;8746;49.230;9.220;2023-08-21T09:33:40;100371.44;;;28.69;70.46
17260;BME280;8746;49.230;9.220;2023-08-21T09:36:06;100373.16;;;28.86;67.82
17260;BME280;8746;49.230;9.220;2023-08-21T09:38:33;100377.38;;;28.89;68.33
17260;BME280;8746;49.230;9.220;2023-08-21T09:40:59;100379.59;;;28.77;66.95
17260;BME280;8746;49.230;9.220;2023-08-21T09:43:25;100375.50;;;28.89;66.98
17260;BME280;8746;49.230;9.220;2023-08-21T09:45:53;100375.84;;;28.94;66.98
17260;BME280;8746;49.230;9.220;2023-08-21T09:48:22;100367.50;;;29.13;69.20
17260;BME280;8746;49.230;9.220;2023-08-21T09:50:49;100362.88;;;29.46;65.81
17260;BME280;8746;49.230;9.220;2023-08-21T09:53:16;100363.06;;;29.76;67.45
17260;BME280;8746;49.230;9.220;2023-08-21T09:55:42;100366.97;;;29.82;67.92
17260;BME280;8746;49.230;9.220;2023-08-21T09:58:08;100358.75;;;29.90;64.79
17260;BME280;8746;49.230;9.220;2023-08-21T10:00:37;100368.47;;;29.93;65.65
17260;BME280;8746;49.230;9.220;2023-08-21T10:03:11;100358.03;;;29.96;64.33
17260;BME280;8746;49.230;9.220;2023-08-21T10:05:40;100359.94;;;29.96;64.07
17260;BME280;8746;49.230;9.220;2023-08-21T10:08:07;100351.31;;;30.38;62.75
17260;BME280;8746;49.230;9.220;2023-08-21T10:10:34;100362.13;;;30.55;62.63
17260;BME280;8746;49.230;9.220;2023-08-21T10:13:02;100358.56;;;30.69;61.52
17260;BME280;8746;49.230;9.220;2023-08-21T10:15:28;100350.06;;;30.73;60.70
17260;BME280;8746;49.230;9.220;2023-08-21T10:17:54;100348.47;;;31.16;59.88
17260;BME280;8746;49.230;9.220;2023-08-21T10:20:21;100349.00;;;31.42;56.93
17260;BME280;8746;49.230;9.220;2023-08-21T10:22:52;100337.06;;;31.73;57.00
17260;BME280;8746;49.230;9.220;2023-08-21T10:25:19;100334.38;;;32.16;54.01
17260;BME280;8746;49.230;9.220;2023-08-21T10:27:53;100333.41;;;32.67;51.55
17260;BME280;8746;49.230;9.220;2023-08-21T10:30:23;100337.97;;;32.82;51.85
17260;BME280;8746;49.230;9.220;2023-08-21T10:32:54;100340.38;;;32.98;51.58
17260;BME280;8746;49.230;9.220;2023-08-21T10:35:33;100335.50;;;33.22;48.97
17260;BME280;8746;49.230;9.220;2023-08-21T10:38:06;100333.97;;;33.48;48.90
17260;BME280;8746;49.230;9.220;2023-08-21T10:40:32;100338.34;;;33.84;49.49
17260;BME280;8746;49.230;9.220;2023-08-21T10:42:59;100341.16;;;34.11;49.38
17260;BME280;8746;49.230;9.220;2023-08-21T10:45:24;100333.31;;;33.87;46.87
17260;BME280;8746;49.230;9.220;2023-08-21T10:47:50;100341.59;;;33.52;46.77
17260;BME280;8746;49.230;9.220;2023-08-21T10:50:16;100330.13;;;33.84;47.38
17260;BME280;8746;49.230;9.220;2023-08-21T10:52:43;100324.94;;;34.02;44.49
17260;BME280;8746;49.230;9.220;2023-08-21T10:55:11;100325.81;;;34.16;46.09
17260;BME280;8746;49.230;9.220;2023-08-21T10:57:37;100325.19;;;33.59;45.42
17260;BME280;8746;49.230;9.220;2023-08-21T11:00:11;100317.97;;;32.31;47.64
17260;BME280;8746;49.230;9.220;2023-08-21T11:02:38;100316.84;;;32.97;47.07
17260;BME280;8746;49.230;9.220;2023-08-21T11:05:05;100322.34;;;33.32;46.25
17260;BME280;8746;49.230;9.220;2023-08-21T11:07:36;100309.03;;;33.78;46.09
17260;BME280;8746;49.230;9.220;2023-08-21T11:10:02;100318.22;;;34.12;46.43
17260;BME280;8746;49.230;9.220;2023-08-21T11:12:28;100315.34;;;34.47;45.80
17260;BME280;8746;49.230;9.220;2023-08-21T11:14:54;100318.25;;;34.72;42.13
17260;BME280;8746;49.230;9.220;2023-08-21T11:17:19;100318.19;;;33.98;43.28
17260;BME280;8746;49.230;9.220;2023-08-21T11:19:44;100318.53;;;33.82;44.86
17260;BME280;8746;49.230;9.220;2023-08-21T11:22:11;100315.56;;;34.45;42.09
17260;BME280;8746;49.230;9.220;2023-08-21T11:27:06;100316.59;;;34.58;42.70
17260;BME280;8746;49.230;9.220;2023-08-21T11:32:14;100314.91;;;34.50;42.08
17260;BME280;8746;49.230;9.220;2023-08-21T11:34:42;100319.09;;;34.99;41.64
17260;BME280;8746;49.230;9.220;2023-08-21T11:37:09;100313.56;;;35.20;39.61
17260;BME280;8746;49.230;9.220;2023-08-21T11:39:42;100312.38;;;35.68;42.10
17260;BME280;8746;49.230;9.220;2023-08-21T11:42:12;100306.03;;;36.06;38.68
17260;BME280;8746;49.230;9.220;2023-08-21T11:47:10;100311.38;;;35.49;40.70
17260;BME280;8746;49.230;9.220;2023-08-21T11:49:37;100312.03;;;35.96;40.57
17260;BME280;8746;49.230;9.220;2023-08-21T11:52:04;100310.09;;;35.97;39.04
17260;BME280;8746;49.230;9.220;2023-08-21T11:54:37;100313.59;;;35.72;39.92
17260;BME280;8746;49.230;9.220;2023-08-21T11:57:11;100306.78;;;35.81;40.70
17260;BME280;8746;49.230;9.220;2023-08-21T11:59:37;100301.69;;;36.23;38.80
17260;BME280;8746;49.230;9.220;2023-08-21T12:02:09;100306.28;;;36.30;39.80
17260;BME280;8746;49.230;9.220;2023-08-21T12:04:34;100304.44;;;35.91;38.85
17260;BME280;8746;49.230;9.220;2023-08-21T12:07:00;100311.91;;;35.12;40.76
17260;BME280;8746;49.230;9.220;2023-08-21T12:09:25;100306.75;;;35.36;41.21
17260;BME280;8746;49.230;9.220;2023-08-21T12:11:51;100298.72;;;35.47;39.89
17260;BME280;8746;49.230;9.220;2023-08-21T12:14:17;100299.88;;;35.72;39.42
17260;BME280;8746;49.230;9.220;2023-08-21T12:16:42;100306.78;;;35.42;39.16
17260;BME280;8746;49.230;9.220;2023-08-21T12:19:08;100297.59;;;34.83;42.62
17260;BME280;8746;49.230;9.220;2023-08-21T12:21:34;100299.63;;;33.87;43.19
17260;BME280;8746;49.230;9.220;2023-08-21T12:24:03;100304.41;;;33.23;45.15
17260;BME280;8746;49.230;9.220;2023-08-21T12:26:29;100292.34;;;32.75;45.78
17260;BME280;8746;49.230;9.220;2023-08-21T12:28:54;100293.63;;;32.58;45.08
17260;BME280;8746;49.230;9.220;2023-08-21T12:31:19;100287.03;;;33.02;45.61
17260;BME280;8746;49.230;9.220;2023-08-21T12:33:44;100287.00;;;33.93;44.75
17260;BME280;8746;49.230;9.220;2023-08-21T12:36:10;100292.56;;;34.93;42.70
17260;BME280;8746;49.230;9.220;2023-08-21T12:38:35;100281.66;;;35.84;38.83
17260;BME280;8746;49.230;9.220;2023-08-21T12:41:02;100288.16;;;35.51;39.20
17260;BME280;8746;49.230;9.220;2023-08-21T12:43:27;100280.22;;;36.64;38.14
17260;BME280;8746;49.230;9.220;2023-08-21T12:45:52;100275.19;;;37.05;36.72
17260;BME280;8746;49.230;9.220;2023-08-21T12:48:18;100271.88;;;38.25;35.88
17260;BME280;8746;49.230;9.220;2023-08-21T12:50:43;100276.94;;;38.99;35.97
17260;BME280;8746;49.230;9.220;2023-08-21T12:53:08;100270.28;;;39.77;32.99
17260;BME280;8746;49.230;9.220;2023-08-21T12:55:34;100272.22;;;39.64;33.29
17260;BME280;8746;49.230;9.220;2023-08-21T12:57:59;100272.28;;;37.00;37.59
17260;BME280;8746;49.230;9.220;2023-08-21T13:00:24;100266.59;;;36.51;38.18
17260;BME280;8746;49.230;9.220;2023-08-21T13:02:49;100259.88;;;37.46;36.43
17260;BME280;8746;49.230;9.220;2023-08-21T13:05:15;100263.78;;;37.88;35.87